Terminal Aerodrome Forecast
Issued by NWS

Home | Current Version | Previous Version | Text Only | Print | Product List | Glossary On
Versions: 1 2 3 4 5 6 7 8 9 10 11 12 13 14 15 16 17 18 19 20
000
FTUS41 KPBZ 021300 AAA
TAFMGW
TAF AMD
KMGW 021327Z 0213/0312 29009KT P6SM BKN025 OVC035
      TEMPO 0214/0215 2SM -SN OVC015
     FM021800 28008KT P6SM BKN015
     FM030000 28008KT P6SM BKN250
     FM030700 VRB03KT P6SM OVC100=

USA.gov is the U.S. government's official web portal to all federal, state and local government web resources and services.